Terminal Aerodrome Forecast
Issued by NWS La Crosse, WI

Home | Current Version | Previous Version | Text Only | Print | Product List | Glossary On
Versions: 1 2 3 4 5 6 7 8 9 10 11 12 13 14 15 16 17 18 19 20 21 22 23 24 25 26 27
000
FTUS43 KARX 190520
TAFRST
TAF
KRST 190520Z 1906/2006 12008KT P6SM -SHRA BKN050 OVC080
      TEMPO 1906/1907 4SM -SHRA BR
     FM191100 15013KT 5SM -SHRA BR BKN025
     FM191500 18011KT P6SM OVC014
     FM191900 28012KT P6SM -SHRA BKN030
     FM192200 31010KT 5SM -SHRA BR OVC028=

USA.gov is the U.S. government's official web portal to all federal, state and local government web resources and services.